Time;durP1;ratioP1;P1;durP2;ratioP2;P2;SDS_P1;SDS_P2;PMS_P1;PMS_P2;Temp;Humidity;BMP_temperature;BMP_pressure;BME280_temperature;BME280_humidity;BME280_pressure;Samples;Min_cycle;Max_cycle;Signal;HPM_P1;HPM_P2
2022/05/18 00:03:06;;;;;;;9.50;4.83;;;;;17.30;101326.00;;;;9975538;29;20606;-76
2022/05/18 00:08:09;;;;;;;10.98;4.45;;;;;17.10;101327.00;;;;9990851;29;20209;-76
2022/05/18 00:13:12;;;;;;;8.70;3.83;;;;;17.00;101331.00;;;;9985456;29;20235;-76
2022/05/18 00:18:14;;;;;;;10.48;3.50;;;;;16.90;101331.00;;;;10005117;29;20226;-76
2022/05/18 00:23:16;;;;;;;8.00;4.00;;;;;16.80;101346.00;;;;9983307;29;20213;-76
2022/05/18 00:28:18;;;;;;;7.27;3.90;;;;;16.70;101342.00;;;;9982383;29;20701;-76
2022/05/18 00:33:20;;;;;;;6.53;4.05;;;;;16.60;101337.00;;;;10024213;29;20217;-76
2022/05/18 00:38:22;;;;;;;6.30;3.90;;;;;16.60;101339.00;;;;9997473;29;20260;-75
2022/05/18 00:43:29;;;;;;;5.17;3.40;;;;;16.60;101343.00;;;;9987815;29;20678;-75
2022/05/18 00:48:32;;;;;;;6.20;3.50;;;;;16.50;101328.00;;;;10020305;29;20225;-76
2022/05/18 00:53:54;;;;;;;5.37;3.60;;;;;16.50;101320.00;;;;10016454;29;20664;-76
2022/05/18 00:59:01;;;;;;;7.63;3.60;;;;;16.60;101323.00;;;;9973372;29;20197;-76
2022/05/18 01:04:04;;;;;;;6.70;3.33;;;;;16.80;101323.00;;;;9976984;29;20273;-78
2022/05/18 01:09:07;;;;;;;8.20;3.77;;;;;17.00;101321.00;;;;9983932;29;20812;-78
2022/05/18 01:14:20;;;;;;;7.73;3.17;;;;;17.00;101308.00;;;;9979007;29;20665;-78
2022/05/18 01:19:38;;;;;;;6.20;3.63;;;;;17.00;101309.00;;;;9970165;29;20225;-78
2022/05/18 01:25:01;;;;;;;6.77;3.43;;;;;17.10;101309.00;;;;9958157;29;20205;-78
2022/05/18 01:30:06;;;;;;;7.80;3.30;;;;;17.10;101318.00;;;;9948436;29;20289;-78
2022/05/18 01:35:10;;;;;;;3.55;2.50;;;;;17.20;101332.00;;;;9998618;29;20269;-78
2022/05/18 01:40:23;;;;;;;6.28;2.75;;;;;17.30;101342.00;;;;10011696;29;20204;-78
2022/05/18 01:45:25;;;;;;;5.80;2.30;;;;;17.40;101346.00;;;;10035514;29;20212;-78
2022/05/18 01:50:28;;;;;;;7.93;3.08;;;;;17.40;101378.00;;;;9995878;29;20219;-80
2022/05/18 01:55:32;;;;;;;4.28;2.30;;;;;17.50;101381.00;;;;9952236;29;20209;-78
2022/05/18 02:00:34;;;;;;;5.18;2.30;;;;;17.60;101358.00;;;;9979711;29;20204;-78
2022/05/18 02:05:36;;;;;;;2.33;1.90;;;;;17.70;101339.00;;;;9966872;29;20213;-78
2022/05/18 02:10:39;;;;;;;5.13;2.05;;;;;17.90;101348.00;;;;9952634;29;20747;-79
2022/05/18 02:15:41;;;;;;;2.83;1.90;;;;;17.90;101356.00;;;;10033842;29;20197;-79
2022/05/18 02:20:43;;;;;;;5.28;2.28;;;;;17.90;101364.00;;;;9978556;29;20631;-78
2022/05/18 02:25:45;;;;;;;2.80;1.95;;;;;17.90;101379.00;;;;9980681;29;20205;-78
2022/05/18 02:30:47;;;;;;;2.47;1.98;;;;;17.80;101378.00;;;;9954892;29;20218;-78
2022/05/18 02:35:49;;;;;;;4.28;2.25;;;;;17.80;101372.00;;;;9992007;29;20198;-79
2022/05/18 02:40:51;;;;;;;3.95;2.35;;;;;17.80;101365.00;;;;10013429;29;20201;-79
2022/05/18 02:46:02;;;;;;;4.10;2.55;;;;;17.90;101365.00;;;;10024008;29;20253;-78
2022/05/18 02:51:05;;;;;;;5.20;2.50;;;;;17.90;101352.00;;;;10014723;29;20265;-78
2022/05/18 02:56:12;;;;;;;4.25;2.58;;;;;17.90;101349.00;;;;9999074;29;20201;-78
2022/05/18 03:01:16;;;;;;;11.18;3.10;;;;;17.90;101356.00;;;;9985192;29;20236;-78
2022/05/18 03:06:21;;;;;;;4.82;2.38;;;;;17.80;101360.00;;;;10030496;29;20212;-79
2022/05/18 03:11:23;;;;;;;3.17;2.42;;;;;17.70;101363.00;;;;9982656;29;20250;-79
2022/05/18 03:16:27;;;;;;;8.07;2.83;;;;;17.60;101370.00;;;;9994226;29;20202;-78
2022/05/18 03:26:49;;;;;;;8.70;3.15;;;;;17.60;101374.00;;;;10007657;29;20213;-79
2022/05/18 03:31:51;;;;;;;7.57;3.20;;;;;17.60;101369.00;;;;10009400;29;20205;-79
2022/05/18 03:36:53;;;;;;;5.93;3.03;;;;;17.60;101376.00;;;;10013003;29;20202;-78
2022/05/18 03:41:57;;;;;;;8.68;3.28;;;;;17.60;101389.00;;;;10024318;29;20201;-79
2022/05/18 03:46:58;;;;;;;6.88;3.20;;;;;17.70;101390.00;;;;10031282;29;20245;-78
2022/05/18 03:52:00;;;;;;;4.78;3.08;;;;;17.70;101398.00;;;;10012939;29;20265;-79
2022/05/18 03:57:10;;;;;;;3.97;2.83;;;;;17.90;101400.00;;;;9990915;29;20194;-78
2022/05/18 04:02:12;;;;;;;6.00;3.20;;;;;17.90;101400.00;;;;9962962;29;20206;-78
2022/05/18 04:07:14;;;;;;;4.97;2.80;;;;;17.90;101401.00;;;;10007774;29;20213;-78
2022/05/18 04:12:16;;;;;;;5.45;3.22;;;;;17.90;101409.00;;;;9977076;29;20258;-79
2022/05/18 04:17:18;;;;;;;5.78;2.88;;;;;17.90;101415.00;;;;10022242;29;20245;-78
2022/05/18 04:22:23;;;;;;;4.35;3.00;;;;;18.20;101426.00;;;;10005787;29;20297;-78
2022/05/18 04:27:25;;;;;;;7.47;3.30;;;;;18.50;101439.00;;;;10001226;29;20242;-79
2022/05/18 04:32:27;;;;;;;7.57;2.80;;;;;18.70;101458.00;;;;9981807;29;20202;-78
2022/05/18 04:37:29;;;;;;;5.93;2.83;;;;;18.90;101451.00;;;;9990230;29;20205;-79
2022/05/18 04:42:31;;;;;;;7.88;3.13;;;;;19.00;101456.00;;;;9989740;29;21702;-78
2022/05/18 04:47:33;;;;;;;6.50;2.70;;;;;19.10;101472.00;;;;9969224;29;20210;-78
2022/05/18 04:52:35;;;;;;;7.32;2.80;;;;;19.20;101479.00;;;;9997394;29;20253;-78
2022/05/18 04:57:36;;;;;;;7.55;3.05;;;;;19.40;101483.00;;;;9989586;29;20204;-79
2022/05/18 05:02:39;;;;;;;8.88;2.92;;;;;20.00;101483.00;;;;9982325;29;20631;-78
2022/05/18 05:07:42;;;;;;;8.05;2.97;;;;;19.90;101490.00;;;;9964253;29;20699;-80
2022/05/18 05:12:45;;;;;;;7.75;3.05;;;;;19.90;101503.00;;;;9974189;29;20289;-79
2022/05/18 05:17:47;;;;;;;12.18;2.85;;;;;20.00;101518.00;;;;9979182;29;20233;-78
2022/05/18 05:22:49;;;;;;;10.43;2.53;;;;;20.10;101515.00;;;;9989764;29;20677;-79
2022/05/18 05:27:51;;;;;;;5.32;2.63;;;;;20.30;101522.00;;;;9999219;29;20244;-79
2022/05/18 05:32:53;;;;;;;6.38;2.50;;;;;20.40;101530.00;;;;9990992;29;20206;-79
2022/05/18 05:37:55;;;;;;;5.93;2.72;;;;;20.60;101532.00;;;;9953052;29;20650;-78
2022/05/18 05:42:57;;;;;;;5.43;2.72;;;;;20.80;101539.00;;;;9984273;29;20965;-79
2022/05/18 05:47:59;;;;;;;6.93;3.22;;;;;20.70;101540.00;;;;10031507;29;20216;-79
2022/05/18 05:53:01;;;;;;;7.47;3.50;;;;;20.70;101552.00;;;;9987400;29;20557;-79
2022/05/18 05:58:03;;;;;;;5.30;3.25;;;;;20.70;101560.00;;;;9969322;29;20206;-79
2022/05/18 06:03:05;;;;;;;8.07;3.33;;;;;20.70;101562.00;;;;10018558;29;20265;-78
2022/05/18 06:08:08;;;;;;;6.85;3.30;;;;;20.70;101566.00;;;;9995480;29;20218;-79
2022/05/18 06:13:11;;;;;;;10.57;3.97;;;;;21.30;101578.00;;;;9959115;29;20274;-79
2022/05/18 06:18:14;;;;;;;7.18;3.40;;;;;22.00;101578.00;;;;9989268;29;20252;-78
2022/05/18 06:23:19;;;;;;;5.32;3.00;;;;;22.40;101574.00;;;;10020006;29;20669;-78
2022/05/18 06:28:21;;;;;;;4.57;3.30;;;;;23.30;101588.00;;;;10008720;29;20685;-78
2022/05/18 06:33:23;;;;;;;4.72;3.03;;;;;24.00;101601.00;;;;9978831;29;20254;-78
2022/05/18 06:38:26;;;;;;;6.65;3.67;;;;;23.00;101606.00;;;;10001712;29;20202;-78
2022/05/18 06:43:29;;;;;;;6.13;3.58;;;;;22.30;101602.00;;;;9995321;29;20291;-78
2022/05/18 06:48:31;;;;;;;6.90;3.80;;;;;23.30;101596.00;;;;9991437;29;20217;-78
2022/05/18 06:53:53;;;;;;;10.80;4.38;;;;;23.60;101613.00;;;;10027855;29;20201;-78
2022/05/18 06:58:57;;;;;;;7.38;3.60;;;;;23.10;101613.00;;;;9995059;29;20285;-78
2022/05/18 07:04:01;;;;;;;7.15;3.88;;;;;23.70;101614.00;;;;9992807;29;20205;-78
2022/05/18 07:09:07;;;;;;;7.95;3.75;;;;;25.00;101616.00;;;;9992012;29;20221;-78
2022/05/18 07:14:20;;;;;;;7.28;3.05;;;;;24.20;101626.00;;;;9979596;29;20263;-78
2022/05/18 07:19:23;;;;;;;9.40;3.25;;;;;23.90;101619.00;;;;9972958;29;20222;-78
2022/05/18 07:24:25;;;;;;;6.95;3.28;;;;;24.40;101617.00;;;;10000981;29;20245;-78
2022/05/18 07:29:27;;;;;;;7.97;3.42;;;;;24.80;101636.00;;;;9968187;29;20221;-78
2022/05/18 07:34:30;;;;;;;6.60;2.92;;;;;24.60;101641.00;;;;10004136;29;20210;-78
2022/05/18 07:39:32;;;;;;;7.22;2.83;;;;;24.00;101642.00;;;;9991677;29;21970;-78
2022/05/18 07:44:35;;;;;;;6.07;2.90;;;;;24.50;101639.00;;;;9990779;29;20859;-78
2022/05/18 07:49:40;;;;;;;4.90;2.60;;;;;25.30;101647.00;;;;10008660;29;20297;-79
2022/05/18 07:54:44;;;;;;;3.72;2.35;;;;;26.60;101648.00;;;;9974147;29;20662;-78
2022/05/18 07:59:46;;;;;;;4.15;2.20;;;;;27.20;101649.00;;;;9966001;29;20201;-79
2022/05/18 08:04:48;;;;;;;3.42;1.60;;;;;26.50;101649.00;;;;9975380;29;20210;-78
2022/05/18 08:15:12;;;;;;;3.92;1.80;;;;;27.00;101668.00;;;;9985960;29;20201;-79
2022/05/18 08:20:17;;;;;;;4.43;1.58;;;;;27.10;101682.00;;;;9995620;29;20253;-78
2022/05/18 08:25:19;;;;;;;2.88;1.15;;;;;26.80;101659.00;;;;10018153;29;20621;-79
2022/05/18 08:30:23;;;;;;;3.15;1.50;;;;;27.70;101662.00;;;;10025556;29;20273;-79
2022/05/18 08:35:27;;;;;;;2.13;1.25;;;;;28.30;101659.00;;;;10017035;29;20234;-79
2022/05/18 08:40:29;;;;;;;3.00;1.58;;;;;28.20;101658.00;;;;9976312;29;20672;-78
2022/05/18 08:45:34;;;;;;;1.58;1.20;;;;;28.40;101656.00;;;;9988327;29;20201;-78
2022/05/18 08:50:38;;;;;;;5.88;1.52;;;;;28.60;101664.00;;;;9958393;29;20221;-79
2022/05/18 08:56:03;;;;;;;2.67;1.30;;;;;28.60;101675.00;;;;10003139;29;20194;-78
2022/05/18 09:01:34;;;;;;;1.17;1.13;;;;;29.00;101674.00;;;;9963373;29;21994;-78
2022/05/18 09:06:42;;;;;;;1.42;1.08;;;;;28.90;101675.00;;;;9991802;29;20666;-78
2022/05/18 09:11:45;;;;;;;1.75;0.90;;;;;28.50;101673.00;;;;9980616;29;20706;-78
2022/05/18 09:17:23;;;;;;;2.13;0.93;;;;;27.80;101669.00;;;;9987889;29;20301;-78
2022/05/18 09:22:55;;;;;;;1.33;0.65;;;;;28.80;101668.00;;;;9973133;29;20673;-79
2022/05/18 09:28:21;;;;;;;1.13;0.55;;;;;29.70;101665.00;;;;9970415;29;20213;-78
2022/05/18 09:33:48;;;;;;;1.45;0.65;;;;;28.70;101669.00;;;;9978971;29;20190;-78
2022/05/18 09:39:02;;;;;;;3.45;0.68;;;;;29.40;101663.00;;;;9975732;29;20198;-78
2022/05/18 09:44:15;;;;;;;1.13;0.60;;;;;29.30;101651.00;;;;9999834;29;20258;-78
2022/05/18 09:49:22;;;;;;;1.73;0.63;;;;;30.10;101645.00;;;;10013211;29;20210;-79
2022/05/18 09:54:26;;;;;;;2.92;0.73;;;;;29.70;101657.00;;;;9980778;29;20574;-78
2022/05/18 09:59:36;;;;;;;2.40;0.70;;;;;30.40;101655.00;;;;9993141;29;20214;-78
2022/05/18 10:10:21;;;;;;;3.25;1.10;;;;;31.30;101646.00;;;;9999877;29;20218;-78
2022/05/18 10:15:38;;;;;;;2.75;1.05;;;;;31.40;101647.00;;;;10029284;29;20240;-78
2022/05/18 10:20:41;;;;;;;2.53;1.05;;;;;31.90;101650.00;;;;9988951;29;20236;-78
2022/05/18 10:25:50;;;;;;;2.20;1.00;;;;;31.70;101636.00;;;;9974254;29;20214;-78
2022/05/18 10:31:02;;;;;;;1.13;0.80;;;;;32.50;101636.00;;;;9984378;29;20202;-78
2022/05/18 10:36:23;;;;;;;2.45;1.00;;;;;32.70;101635.00;;;;9985791;29;20621;-78
2022/05/18 10:41:36;;;;;;;2.53;0.98;;;;;33.00;101635.00;;;;9997510;29;20236;-78
2022/05/18 10:46:40;;;;;;;2.70;1.00;;;;;33.00;101626.00;;;;10006732;29;20241;-78
2022/05/18 10:51:49;;;;;;;6.03;1.75;;;;;33.70;101634.00;;;;9989481;29;20274;-78
2022/05/18 10:56:54;;;;;;;6.78;1.40;;;;;34.00;101634.00;;;;9984404;29;20219;-78
2022/05/18 11:02:21;;;;;;;2.90;1.20;;;;;33.80;101632.00;;;;10004907;29;20200;-79
2022/05/18 11:07:27;;;;;;;2.03;0.82;;;;;33.60;101627.00;;;;10002617;29;20198;-78
2022/05/18 11:12:44;;;;;;;3.20;1.23;;;;;34.20;101622.00;;;;10001750;29;20732;-79
2022/05/18 11:18:14;;;;;;;2.75;0.95;;;;;33.40;101623.00;;;;9989576;29;20701;-78
2022/05/18 11:23:43;;;;;;;3.65;1.42;;;;;33.20;101620.00;;;;9980184;29;20210;-78
2022/05/18 11:29:04;;;;;;;3.90;1.17;;;;;33.30;101621.00;;;;9971004;29;20229;-77
2022/05/18 11:34:31;;;;;;;2.80;1.30;;;;;33.30;101623.00;;;;9997148;29;20204;-78
2022/05/18 11:39:39;;;;;;;3.63;1.33;;;;;32.70;101609.00;;;;9986867;29;20196;-78
2022/05/18 11:44:46;;;;;;;1.75;1.10;;;;;33.00;101595.00;;;;10004653;29;20225;-78
2022/05/18 11:49:55;;;;;;;6.38;2.20;;;;;32.80;101603.00;;;;9969568;29;20779;-78
2022/05/18 11:55:03;;;;;;;4.10;1.70;;;;;33.10;101603.00;;;;10001552;29;20201;-78
2022/05/18 12:00:14;;;;;;;4.65;2.10;;;;;34.30;101595.00;;;;10027501;29;20258;-78
2022/05/18 12:05:36;;;;;;;2.25;1.58;;;;;33.50;101585.00;;;;9996579;29;20244;-78
2022/05/18 12:10:44;;;;;;;4.30;1.80;;;;;33.70;101578.00;;;;9972414;29;20665;-79
2022/05/18 12:16:03;;;;;;;4.72;2.03;;;;;33.50;101581.00;;;;10005162;29;20595;-78
2022/05/18 12:21:17;;;;;;;4.40;2.30;;;;;33.50;101577.00;;;;9988325;29;20232;-78
2022/05/18 12:26:21;;;;;;;3.30;1.70;;;;;34.00;101585.00;;;;9977554;29;20678;-78
2022/05/18 12:31:26;;;;;;;5.93;1.75;;;;;34.00;101577.00;;;;9996754;29;20241;-78
2022/05/18 12:36:40;;;;;;;3.92;1.63;;;;;34.00;101573.00;;;;9979125;29;20197;-79
2022/05/18 12:41:52;;;;;;;5.38;1.67;;;;;34.30;101576.00;;;;9963473;29;20296;-78
2022/05/18 12:47:03;;;;;;;4.70;1.48;;;;;34.50;101569.00;;;;10001055;29;20642;-78
2022/05/18 12:52:17;;;;;;;4.40;1.60;;;;;34.80;101571.00;;;;10003275;29;20209;-78
2022/05/18 12:57:44;;;;;;;10.00;2.08;;;;;35.10;101567.00;;;;9987633;29;20206;-78
2022/05/18 13:02:57;;;;;;;5.30;1.98;;;;;34.80;101564.00;;;;9969642;29;20206;-78
2022/05/18 13:08:11;;;;;;;4.22;1.80;;;;;34.20;101561.00;;;;9986031;29;20678;-78
2022/05/18 13:13:26;;;;;;;6.00;2.10;;;;;34.60;101558.00;;;;9978813;29;20777;-78
2022/05/18 13:18:30;;;;;;;5.03;1.65;;;;;35.40;101550.00;;;;9991736;29;20547;-78
2022/05/18 13:23:32;;;;;;;2.90;1.40;;;;;36.20;101550.00;;;;9988334;29;20210;-78
2022/05/18 13:28:34;;;;;;;6.22;1.42;;;;;37.10;101548.00;;;;9970336;29;20217;-78
2022/05/18 13:33:57;;;;;;;2.80;1.40;;;;;36.90;101537.00;;;;10001051;29;20205;-78
2022/05/18 13:39:05;;;;;;;3.28;1.58;;;;;37.70;101539.00;;;;10002335;29;20232;-78
2022/05/18 13:44:08;;;;;;;3.95;1.58;;;;;38.50;101535.00;;;;9992555;29;20212;-78
2022/05/18 13:49:15;;;;;;;4.88;1.80;;;;;39.70;101538.00;;;;9986281;29;20679;-78
2022/05/18 13:54:21;;;;;;;3.67;1.27;;;;;38.90;101542.00;;;;9972737;29;20205;-78
2022/05/18 13:59:27;;;;;;;2.03;1.23;;;;;37.20;101528.00;;;;10009645;29;20286;-78
2022/05/18 14:04:38;;;;;;;2.55;1.45;;;;;39.40;101522.00;;;;10028508;29;20230;-78
2022/05/18 14:10:02;;;;;;;10.20;1.45;;;;;39.90;101516.00;;;;10017762;29;20221;-78
2022/05/18 14:15:20;;;;;;;9.35;1.38;;;;;40.30;101516.00;;;;9989852;29;20200;-78
2022/05/18 14:20:34;;;;;;;4.88;1.50;;;;;39.70;101510.00;;;;9974881;29;20237;-78
2022/05/18 14:26:02;;;;;;;2.83;1.58;;;;;39.70;101517.00;;;;9982268;29;20202;-78
2022/05/18 14:31:04;;;;;;;5.30;1.50;;;;;37.10;101512.00;;;;10008279;29;20282;-78
2022/05/18 14:36:13;;;;;;;3.28;1.33;;;;;37.00;101504.00;;;;10006205;29;20218;-78
2022/05/18 14:41:15;;;;;;;4.82;1.70;;;;;38.90;101499.00;;;;9979087;29;20203;-78
2022/05/18 14:46:27;;;;;;;4.53;1.42;;;;;40.20;101494.00;;;;9978280;29;20326;-78
2022/05/18 14:51:51;;;;;;;2.97;1.58;;;;;38.80;101498.00;;;;9997018;29;20210;-78
2022/05/18 14:57:00;;;;;;;4.60;1.60;;;;;38.30;101493.00;;;;9970939;29;20212;-78
2022/05/18 15:02:07;;;;;;;2.72;1.48;;;;;39.70;101490.00;;;;9995855;29;20302;-78
2022/05/18 15:07:23;;;;;;;5.80;1.73;;;;;38.90;101478.00;;;;9992299;29;20209;-78
2022/05/18 15:12:41;;;;;;;4.78;1.40;;;;;38.60;101483.00;;;;9997927;29;20635;-78
2022/05/18 15:17:52;;;;;;;5.95;4.00;;;;;37.90;101483.00;;;;10020739;29;20225;-78
2022/05/18 15:23:05;;;;;;;6.32;1.73;;;;;37.30;101479.00;;;;10012731;29;20611;-79
2022/05/18 15:28:18;;;;;;;4.65;1.83;;;;;38.80;101478.00;;;;9982844;29;20635;-78
2022/05/18 15:33:20;;;;;;;9.77;1.38;;;;;39.50;101472.00;;;;9997430;29;20201;-78
2022/05/18 15:38:24;;;;;;;4.15;1.35;;;;;39.60;101477.00;;;;9988742;29;20201;-77
2022/05/18 15:43:26;;;;;;;1.92;1.55;;;;;39.50;101463.00;;;;9983628;29;20207;-79
2022/05/18 15:48:31;;;;;;;3.97;1.10;;;;;36.40;101474.00;;;;9991826;29;20209;-78
2022/05/18 15:53:37;;;;;;;2.60;1.27;;;;;32.60;101465.00;;;;9992206;29;20224;-79
2022/05/18 15:58:39;;;;;;;6.82;1.85;;;;;31.60;101461.00;;;;9990246;29;20256;-78
2022/05/18 16:03:41;;;;;;;5.63;2.03;;;;;31.30;101458.00;;;;9977504;29;20791;-78
2022/05/18 16:08:45;;;;;;;3.75;1.10;;;;;30.80;101451.00;;;;10004119;29;20666;-78
2022/05/18 16:13:54;;;;;;;2.83;1.20;;;;;30.60;101437.00;;;;10002145;29;20207;-79
2022/05/18 16:18:55;;;;;;;5.07;1.60;;;;;29.80;101441.00;;;;9978336;29;20222;-78
2022/05/18 16:24:14;;;;;;;2.65;1.25;;;;;29.40;101438.00;;;;9972657;29;20209;-79
2022/05/18 16:29:24;;;;;;;5.30;4.55;;;;;29.50;101440.00;;;;9960184;29;20217;-79
2022/05/18 16:34:26;;;;;;;1.75;1.20;;;;;29.90;101437.00;;;;9972233;29;20233;-78
2022/05/18 16:39:29;;;;;;;2.13;1.58;;;;;30.10;101440.00;;;;10024892;29;20845;-78
2022/05/18 16:44:31;;;;;;;5.13;1.75;;;;;30.30;101432.00;;;;9993304;29;20201;-77
2022/05/18 16:49:34;;;;;;;3.95;2.50;;;;;30.00;101424.00;;;;9959650;29;20255;-78
2022/05/18 16:54:38;;;;;;;5.07;3.38;;;;;30.10;101421.00;;;;9985978;29;20681;-78
2022/05/18 16:59:43;;;;;;;3.90;1.70;;;;;30.00;101417.00;;;;9954016;29;20218;-77
2022/05/18 17:05:57;;;;;;;5.85;1.30;;;;;29.70;101419.00;;;;9972727;29;20201;-79
2022/05/18 17:10:08;;;;;;;3.17;1.17;;;;;29.40;101421.00;;;;9995036;29;20708;-79
2022/05/18 17:15:15;;;;;;;2.88;1.30;;;;;29.40;101416.00;;;;9995143;29;20237;-79
2022/05/18 17:20:17;;;;;;;4.97;1.20;;;;;29.10;101410.00;;;;9984470;29;20268;-78
2022/05/18 17:25:19;;;;;;;2.47;1.25;;;;;28.80;101411.00;;;;9996841;29;20299;-78
2022/05/18 17:30:21;;;;;;;3.50;1.30;;;;;28.50;101415.00;;;;9987861;29;20297;-79
2022/05/18 17:35:29;;;;;;;2.55;1.73;;;;;28.10;101408.00;;;;10003478;29;20205;-79
2022/05/18 17:40:32;;;;;;;4.90;1.45;;;;;28.00;101397.00;;;;10017656;29;20205;-79
2022/05/18 17:45:34;;;;;;;3.30;1.48;;;;;28.00;101399.00;;;;9949911;29;20202;-78
2022/05/18 17:50:38;;;;;;;5.43;1.48;;;;;27.90;101393.00;;;;10011512;29;20787;-78
2022/05/18 17:55:42;;;;;;;3.08;1.10;;;;;27.80;101395.00;;;;9988962;29;20209;-79
2022/05/18 18:00:46;;;;;;;8.88;4.63;;;;;27.70;101391.00;;;;9973857;29;20292;-78
2022/05/18 18:05:48;;;;;;;5.65;4.53;;;;;27.50;101392.00;;;;10026061;29;20574;-78
2022/05/18 18:10:52;;;;;;;8.32;5.35;;;;;27.30;101407.00;;;;10011042;29;20754;-78
2022/05/18 18:15:54;;;;;;;14.60;13.18;;;;;27.20;101402.00;;;;9979059;29;20255;-78
2022/05/18 18:20:58;;;;;;;2.55;2.00;;;;;27.00;101402.00;;;;9979746;29;20229;-78
2022/05/18 18:26:05;;;;;;;5.60;2.70;;;;;26.90;101389.00;;;;9964650;29;20238;-78
2022/05/18 18:31:08;;;;;;;5.60;1.98;;;;;26.70;101385.00;;;;10008671;29;20247;-78
2022/05/18 18:36:26;;;;;;;3.63;1.50;;;;;26.40;101388.00;;;;9992516;29;20230;-78
2022/05/18 18:41:30;;;;;;;5.72;1.70;;;;;26.10;101392.00;;;;9972525;29;20266;-78
2022/05/18 18:46:34;;;;;;;4.72;1.75;;;;;25.70;101396.00;;;;9988373;29;20197;-78
2022/05/18 18:57:00;;;;;;;4.57;1.40;;;;;25.10;101381.00;;;;10002161;29;20217;-78
2022/05/18 19:02:03;;;;;;;9.60;1.70;;;;;24.90;101379.00;;;;9977337;29;20210;-78
2022/05/18 19:07:09;;;;;;;4.47;1.63;;;;;24.60;101379.00;;;;9980029;29;20236;-78
2022/05/18 19:12:37;;;;;;;5.85;1.83;;;;;24.30;101380.00;;;;9971393;29;20600;-78
2022/05/18 19:17:39;;;;;;;8.73;1.98;;;;;24.10;101381.00;;;;9986291;29;20261;-78
2022/05/18 19:22:45;;;;;;;7.40;2.38;;;;;23.80;101377.00;;;;9984696;29;20202;-78
2022/05/18 19:27:49;;;;;;;4.45;1.95;;;;;23.60;101375.00;;;;9955120;29;20206;-78
2022/05/18 19:32:53;;;;;;;9.63;2.15;;;;;23.40;101373.00;;;;9976720;29;20296;-78
2022/05/18 19:37:55;;;;;;;14.60;3.55;;;;;23.20;101368.00;;;;9978029;29;20543;-78
2022/05/18 19:43:03;;;;;;;7.22;3.13;;;;;23.00;101369.00;;;;9943419;29;20217;-78
2022/05/18 19:48:08;;;;;;;5.03;2.08;;;;;22.80;101373.00;;;;9985968;29;20198;-78
2022/05/18 19:53:10;;;;;;;7.25;2.45;;;;;22.60;101371.00;;;;9984199;29;20206;-78
2022/05/18 19:58:19;;;;;;;8.57;3.05;;;;;22.40;101377.00;;;;9993698;29;20205;-78
2022/05/18 20:03:21;;;;;;;9.30;2.67;;;;;22.30;101363.00;;;;9957475;29;20195;-78
2022/05/18 20:08:23;;;;;;;6.93;2.15;;;;;22.10;101366.00;;;;10006460;29;20206;-78
2022/05/18 20:13:26;;;;;;;6.97;2.35;;;;;22.00;101352.00;;;;9974579;29;20213;-78
2022/05/18 20:18:29;;;;;;;8.13;2.50;;;;;21.80;101349.00;;;;9970654;29;20232;-79
2022/05/18 20:23:32;;;;;;;7.22;2.45;;;;;21.70;101346.00;;;;10002586;29;20213;-78
2022/05/18 20:28:34;;;;;;;4.57;2.42;;;;;21.50;101348.00;;;;9952442;29;20195;-78
2022/05/18 20:33:36;;;;;;;8.77;2.85;;;;;21.40;101348.00;;;;9984744;29;20650;-78
2022/05/18 20:38:38;;;;;;;4.85;2.65;;;;;21.20;101344.00;;;;9937101;29;20769;-78
2022/05/18 20:43:43;;;;;;;7.72;2.28;;;;;21.10;101347.00;;;;10010864;29;20726;-78
2022/05/18 20:48:45;;;;;;;8.77;2.55;;;;;20.90;101346.00;;;;9965571;29;20661;-78
2022/05/18 20:53:47;;;;;;;6.13;2.20;;;;;20.80;101355.00;;;;9974430;29;20229;-78
2022/05/18 20:58:54;;;;;;;8.43;2.45;;;;;20.80;101356.00;;;;10004774;29;20228;-78
2022/05/18 21:03:56;;;;;;;8.68;2.72;;;;;20.80;101355.00;;;;9972499;29;20223;-78
2022/05/18 21:08:59;;;;;;;9.80;2.50;;;;;20.70;101349.00;;;;9973307;29;20629;-78
2022/05/18 21:14:04;;;;;;;8.68;2.47;;;;;20.70;101358.00;;;;9968978;29;20213;-78
2022/05/18 21:19:07;;;;;;;4.80;2.67;;;;;20.70;101361.00;;;;9997188;29;20300;-78
2022/05/18 21:24:10;;;;;;;9.00;2.75;;;;;20.80;101352.00;;;;9966311;29;20596;-78
2022/05/18 21:29:17;;;;;;;5.80;3.17;;;;;20.80;101341.00;;;;9940964;29;20197;-77
2022/05/18 21:34:19;;;;;;;4.75;2.78;;;;;20.80;101338.00;;;;9986630;29;20246;-78
2022/05/18 21:39:22;;;;;;;9.05;3.25;;;;;20.60;101328.00;;;;9958274;29;20205;-77
2022/05/18 21:44:25;;;;;;;8.88;3.55;;;;;20.50;101317.00;;;;9974096;29;20198;-78
2022/05/18 21:49:27;;;;;;;7.43;3.38;;;;;20.40;101305.00;;;;9966254;29;20213;-77
2022/05/18 21:54:29;;;;;;;6.82;3.10;;;;;20.40;101301.00;;;;9980805;29;20203;-77
2022/05/18 21:59:39;;;;;;;6.72;3.78;;;;;20.50;101283.00;;;;9957672;29;20300;-77
2022/05/18 22:04:42;;;;;;;6.82;3.45;;;;;20.50;101286.00;;;;10002215;29;20202;-77
2022/05/18 22:09:44;;;;;;;6.43;3.28;;;;;20.30;101270.00;;;;10003105;29;20209;-78
2022/05/18 22:14:46;;;;;;;8.38;4.03;;;;;20.30;101281.00;;;;9988225;29;20684;-77
2022/05/18 22:19:50;;;;;;;8.10;4.22;;;;;20.20;101272.00;;;;9972882;29;20686;-78
2022/05/18 22:24:52;;;;;;;8.02;3.60;;;;;20.10;101267.00;;;;9987229;29;20254;-78
2022/05/18 22:29:58;;;;;;;8.90;3.70;;;;;20.00;101266.00;;;;9976429;29;20266;-78
2022/05/18 22:35:02;;;;;;;9.15;4.00;;;;;19.90;101260.00;;;;10004401;29;20197;-78
2022/05/18 22:40:06;;;;;;;9.02;4.30;;;;;19.80;101257.00;;;;10007986;29;20201;-78
2022/05/18 22:45:13;;;;;;;9.15;3.65;;;;;19.70;101258.00;;;;9991520;29;20205;-78
2022/05/18 22:50:32;;;;;;;8.15;4.93;;;;;19.70;101242.00;;;;9993566;29;20608;-78
2022/05/18 22:55:35;;;;;;;12.20;4.40;;;;;19.60;101244.00;;;;9993884;29;20209;-78
2022/05/18 23:00:40;;;;;;;9.43;4.63;;;;;19.50;101243.00;;;;9978039;29;20205;-78
2022/05/18 23:05:45;;;;;;;8.43;4.95;;;;;19.50;101246.00;;;;9993828;29;20569;-78
2022/05/18 23:10:48;;;;;;;9.10;5.60;;;;;19.50;101234.00;;;;10004378;29;20283;-78
2022/05/18 23:15:52;;;;;;;8.07;5.32;;;;;19.40;101232.00;;;;9990557;29;20733;-78
2022/05/18 23:20:55;;;;;;;9.23;5.20;;;;;19.30;101220.00;;;;9958808;29;20225;-77
2022/05/18 23:25:57;;;;;;;7.25;5.22;;;;;19.30;101216.00;;;;9971634;29;20262;-77
2022/05/18 23:31:01;;;;;;;11.43;6.10;;;;;19.20;101204.00;;;;9977915;29;20217;-78
2022/05/18 23:36:06;;;;;;;7.57;5.63;;;;;19.20;101193.00;;;;9976779;29;20301;-78
2022/05/18 23:41:10;;;;;;;7.53;5.78;;;;;19.10;101184.00;;;;10007189;29;20619;-79
2022/05/18 23:46:15;;;;;;;11.73;5.97;;;;;19.10;101184.00;;;;9961079;29;20194;-79
2022/05/18 23:51:33;;;;;;;9.20;6.43;;;;;19.10;101177.00;;;;9991716;29;20210;-78
2022/05/18 23:56:40;;;;;;;8.88;6.18;;;;;19.10;101171.00;;;;10022191;29;20201;-78
